Forney's Hourly Summary for Monday, May 14, 2018
Hour Temp
(f)
RH
(%)
Solar Rad.
(MJ/m2)
Rainfall
(in)
Wind
(mph)
5/14/2018 12:00 AM 76 70 0 0 0.9
5/14/2018 1:00 AM 75 71 0 0 1.08
5/14/2018 2:00 AM 74 74 0 0 1.38
5/14/2018 3:00 AM 73 77 0 0 0.47
5/14/2018 4:00 AM 72 80 0 0 0.53
5/14/2018 5:00 AM 71 83 0 0 0.67
5/14/2018 6:00 AM 70 87 0 0 0.6
5/14/2018 7:00 AM 70 94 0.03 0 0.92
5/14/2018 8:00 AM 71 87 0.47 0 1.26
5/14/2018 9:00 AM 74 76 1.03 0 4.06
5/14/2018 10:00 AM 77 71 1.29 0 5.42
5/14/2018 11:00 AM 79 64 1.73 0 6.54
5/14/2018 12:00 PM 81 59 1.99 0 5.75
5/14/2018 1:00 PM 83 56 2.33 0 5.75
5/14/2018 2:00 PM 84 53 2.55 0 6.15
5/14/2018 3:00 PM 86 50 2.35 0 5.39
5/14/2018 4:00 PM 86 49 1.96 0 5.59
5/14/2018 5:00 PM 86 50 1.75 0 5.71
5/14/2018 6:00 PM 87 48 1.53 0 4.76
5/14/2018 7:00 PM 86 48 0.87 0 4.5
5/14/2018 8:00 PM 83 56 0.11 0 3.23
5/14/2018 9:00 PM 80 63 0 0 1.72
5/14/2018 10:00 PM 78 68 0 0 1.27
5/14/2018 11:00 PM 77 70 0 0 1.75
Data Summary 78 66 19.99 0.00 3.14